sensor_id;sensor_type;location;lat;lon;timestamp;P1;durP1;ratioP1;P2;durP2;ratioP2
60426;SDS011;46274;47.168;27.604;2022-12-18T00:05:54;33.50;;;14.33;;
60426;SDS011;46274;47.168;27.604;2022-12-18T00:11:57;33.67;;;15.23;;
60426;SDS011;46274;47.168;27.604;2022-12-18T00:18:15;32.20;;;13.23;;
60426;SDS011;46274;47.168;27.604;2022-12-18T00:24:28;31.03;;;14.07;;
60426;SDS011;46274;47.168;27.604;2022-12-18T00:30:34;31.90;;;14.53;;
60426;SDS011;46274;47.168;27.604;2022-12-18T00:36:40;37.70;;;15.40;;
60426;SDS011;46274;47.168;27.604;2022-12-18T00:42:52;31.07;;;13.97;;
60426;SDS011;46274;47.168;27.604;2022-12-18T00:49:02;34.83;;;14.63;;
60426;SDS011;46274;47.168;27.604;2022-12-18T00:55:05;36.73;;;15.20;;
60426;SDS011;46274;47.168;27.604;2022-12-18T01:01:10;40.47;;;16.23;;
60426;SDS011;46274;47.168;27.604;2022-12-18T01:07:15;36.10;;;16.10;;
60426;SDS011;46274;47.168;27.604;2022-12-18T01:13:34;36.53;;;15.17;;
60426;SDS011;46274;47.168;27.604;2022-12-18T01:19:37;35.83;;;14.67;;
60426;SDS011;46274;47.168;27.604;2022-12-18T01:25:42;37.93;;;15.53;;
60426;SDS011;46274;47.168;27.604;2022-12-18T01:31:48;30.43;;;13.83;;
60426;SDS011;46274;47.168;27.604;2022-12-18T01:37:59;38.77;;;15.83;;
60426;SDS011;46274;47.168;27.604;2022-12-18T01:44:46;37.03;;;15.43;;
60426;SDS011;46274;47.168;27.604;2022-12-18T01:50:47;29.57;;;13.40;;
60426;SDS011;46274;47.168;27.604;2022-12-18T01:56:51;42.93;;;16.30;;
60426;SDS011;46274;47.168;27.604;2022-12-18T02:03:06;38.13;;;16.63;;
60426;SDS011;46274;47.168;27.604;2022-12-18T02:09:20;40.43;;;16.67;;
60426;SDS011;46274;47.168;27.604;2022-12-18T02:15:38;39.00;;;16.93;;
60426;SDS011;46274;47.168;27.604;2022-12-18T02:27:56;44.57;;;18.13;;
60426;SDS011;46274;47.168;27.604;2022-12-18T02:34:09;44.73;;;18.70;;
60426;SDS011;46274;47.168;27.604;2022-12-18T02:40:15;46.13;;;18.70;;
60426;SDS011;46274;47.168;27.604;2022-12-18T02:46:27;42.73;;;17.90;;
60426;SDS011;46274;47.168;27.604;2022-12-18T02:59:02;44.73;;;18.80;;
60426;SDS011;46274;47.168;27.604;2022-12-18T03:11:18;47.40;;;19.00;;
60426;SDS011;46274;47.168;27.604;2022-12-18T03:17:41;49.43;;;19.00;;
60426;SDS011;46274;47.168;27.604;2022-12-18T03:23:51;46.77;;;18.77;;
60426;SDS011;46274;47.168;27.604;2022-12-18T03:30:06;44.53;;;16.80;;
60426;SDS011;46274;47.168;27.604;2022-12-18T03:36:14;45.40;;;17.87;;
60426;SDS011;46274;47.168;27.604;2022-12-18T03:42:25;43.70;;;18.30;;
60426;SDS011;46274;47.168;27.604;2022-12-18T03:48:32;46.77;;;18.83;;
60426;SDS011;46274;47.168;27.604;2022-12-18T03:54:43;47.03;;;19.23;;
60426;SDS011;46274;47.168;27.604;2022-12-18T04:00:48;46.43;;;18.43;;
60426;SDS011;46274;47.168;27.604;2022-12-18T04:07:02;47.00;;;19.43;;
60426;SDS011;46274;47.168;27.604;2022-12-18T04:13:08;42.60;;;17.70;;
60426;SDS011;46274;47.168;27.604;2022-12-18T04:19:12;43.57;;;17.30;;
60426;SDS011;46274;47.168;27.604;2022-12-18T04:25:15;40.90;;;17.67;;
60426;SDS011;46274;47.168;27.604;2022-12-18T04:31:21;43.10;;;17.20;;
60426;SDS011;46274;47.168;27.604;2022-12-18T04:37:24;40.90;;;15.60;;
60426;SDS011;46274;47.168;27.604;2022-12-18T04:43:26;39.57;;;14.97;;
60426;SDS011;46274;47.168;27.604;2022-12-18T04:49:29;40.63;;;16.70;;
60426;SDS011;46274;47.168;27.604;2022-12-18T04:55:31;40.57;;;15.77;;
60426;SDS011;46274;47.168;27.604;2022-12-18T05:01:35;32.40;;;13.63;;
60426;SDS011;46274;47.168;27.604;2022-12-18T05:07:37;33.37;;;14.17;;
60426;SDS011;46274;47.168;27.604;2022-12-18T05:13:42;32.67;;;14.20;;
60426;SDS011;46274;47.168;27.604;2022-12-18T05:19:48;34.83;;;15.10;;
60426;SDS011;46274;47.168;27.604;2022-12-18T05:25:54;36.60;;;14.53;;
60426;SDS011;46274;47.168;27.604;2022-12-18T05:32:14;35.33;;;14.13;;
60426;SDS011;46274;47.168;27.604;2022-12-18T05:38:18;40.50;;;14.13;;
60426;SDS011;46274;47.168;27.604;2022-12-18T05:44:24;33.87;;;14.47;;
60426;SDS011;46274;47.168;27.604;2022-12-18T05:50:26;36.50;;;13.77;;
60426;SDS011;46274;47.168;27.604;2022-12-18T05:56:29;39.90;;;15.73;;
60426;SDS011;46274;47.168;27.604;2022-12-18T06:02:32;43.90;;;18.00;;
60426;SDS011;46274;47.168;27.604;2022-12-18T06:08:36;49.50;;;19.77;;
60426;SDS011;46274;47.168;27.604;2022-12-18T06:14:46;41.23;;;17.37;;
60426;SDS011;46274;47.168;27.604;2022-12-18T06:20:55;48.87;;;19.23;;
60426;SDS011;46274;47.168;27.604;2022-12-18T06:27:01;46.73;;;18.73;;
60426;SDS011;46274;47.168;27.604;2022-12-18T06:33:06;47.87;;;18.07;;
60426;SDS011;46274;47.168;27.604;2022-12-18T06:39:11;38.17;;;15.53;;
60426;SDS011;46274;47.168;27.604;2022-12-18T06:45:14;40.50;;;16.50;;
60426;SDS011;46274;47.168;27.604;2022-12-18T06:51:21;45.37;;;16.27;;
60426;SDS011;46274;47.168;27.604;2022-12-18T06:57:26;42.90;;;15.40;;
60426;SDS011;46274;47.168;27.604;2022-12-18T07:03:30;42.60;;;15.53;;
60426;SDS011;46274;47.168;27.604;2022-12-18T07:09:36;38.53;;;15.07;;
60426;SDS011;46274;47.168;27.604;2022-12-18T07:15:40;36.27;;;14.50;;
60426;SDS011;46274;47.168;27.604;2022-12-18T07:21:45;40.17;;;16.63;;
60426;SDS011;46274;47.168;27.604;2022-12-18T07:28:01;38.33;;;15.17;;
60426;SDS011;46274;47.168;27.604;2022-12-18T07:34:20;36.43;;;13.87;;
60426;SDS011;46274;47.168;27.604;2022-12-18T07:40:27;38.43;;;14.43;;
60426;SDS011;46274;47.168;27.604;2022-12-18T07:46:31;39.33;;;15.20;;
60426;SDS011;46274;47.168;27.604;2022-12-18T07:52:37;44.30;;;17.93;;
60426;SDS011;46274;47.168;27.604;2022-12-18T07:58:42;57.43;;;19.20;;
60426;SDS011;46274;47.168;27.604;2022-12-18T08:04:55;61.27;;;20.67;;
60426;SDS011;46274;47.168;27.604;2022-12-18T08:11:00;56.53;;;21.23;;
60426;SDS011;46274;47.168;27.604;2022-12-18T08:17:07;51.87;;;19.07;;
60426;SDS011;46274;47.168;27.604;2022-12-18T08:23:10;50.73;;;19.63;;
60426;SDS011;46274;47.168;27.604;2022-12-18T08:29:12;49.13;;;19.33;;
60426;SDS011;46274;47.168;27.604;2022-12-18T08:35:21;50.30;;;17.67;;
60426;SDS011;46274;47.168;27.604;2022-12-18T08:41:28;43.93;;;15.67;;
60426;SDS011;46274;47.168;27.604;2022-12-18T08:47:41;56.70;;;20.03;;
60426;SDS011;46274;47.168;27.604;2022-12-18T08:53:46;60.33;;;20.37;;
60426;SDS011;46274;47.168;27.604;2022-12-18T08:59:57;55.47;;;18.20;;
60426;SDS011;46274;47.168;27.604;2022-12-18T09:06:15;58.53;;;17.70;;
60426;SDS011;46274;47.168;27.604;2022-12-18T09:12:21;55.60;;;19.33;;
60426;SDS011;46274;47.168;27.604;2022-12-18T09:18:31;46.30;;;16.57;;
60426;SDS011;46274;47.168;27.604;2022-12-18T09:24:54;45.10;;;14.87;;
60426;SDS011;46274;47.168;27.604;2022-12-18T09:31:10;41.33;;;13.47;;
60426;SDS011;46274;47.168;27.604;2022-12-18T09:37:17;47.43;;;15.37;;
60426;SDS011;46274;47.168;27.604;2022-12-18T09:44:44;53.50;;;17.20;;
60426;SDS011;46274;47.168;27.604;2022-12-18T09:51:25;53.67;;;16.37;;
60426;SDS011;46274;47.168;27.604;2022-12-18T09:57:44;49.40;;;15.90;;
60426;SDS011;46274;47.168;27.604;2022-12-18T10:03:52;52.67;;;16.40;;
60426;SDS011;46274;47.168;27.604;2022-12-18T10:10:00;46.80;;;16.57;;
60426;SDS011;46274;47.168;27.604;2022-12-18T10:16:13;41.67;;;14.53;;
60426;SDS011;46274;47.168;27.604;2022-12-18T10:22:25;50.53;;;15.23;;
60426;SDS011;46274;47.168;27.604;2022-12-18T10:28:41;48.93;;;15.30;;
60426;SDS011;46274;47.168;27.604;2022-12-18T10:34:50;48.93;;;14.70;;
60426;SDS011;46274;47.168;27.604;2022-12-18T10:47:25;48.73;;;16.93;;
60426;SDS011;46274;47.168;27.604;2022-12-18T10:53:31;46.00;;;15.60;;
60426;SDS011;46274;47.168;27.604;2022-12-18T10:59:49;50.67;;;15.40;;
60426;SDS011;46274;47.168;27.604;2022-12-18T11:06:03;43.53;;;15.27;;
60426;SDS011;46274;47.168;27.604;2022-12-18T11:12:17;45.13;;;17.00;;
60426;SDS011;46274;47.168;27.604;2022-12-18T11:18:29;41.67;;;14.03;;
60426;SDS011;46274;47.168;27.604;2022-12-18T11:24:40;40.03;;;14.20;;
60426;SDS011;46274;47.168;27.604;2022-12-18T11:31:26;52.33;;;15.63;;
60426;SDS011;46274;47.168;27.604;2022-12-18T11:37:32;44.43;;;15.23;;
60426;SDS011;46274;47.168;27.604;2022-12-18T11:49:55;51.27;;;15.97;;
60426;SDS011;46274;47.168;27.604;2022-12-18T11:56:29;42.23;;;13.40;;
60426;SDS011;46274;47.168;27.604;2022-12-18T12:16:02;41.67;;;13.60;;
60426;SDS011;46274;47.168;27.604;2022-12-18T12:29:18;45.47;;;14.53;;
60426;SDS011;46274;47.168;27.604;2022-12-18T12:35:51;45.83;;;15.20;;
60426;SDS011;46274;47.168;27.604;2022-12-18T12:42:08;42.77;;;14.80;;
60426;SDS011;46274;47.168;27.604;2022-12-18T12:54:58;54.97;;;15.70;;
60426;SDS011;46274;47.168;27.604;2022-12-18T13:01:10;46.17;;;15.90;;
60426;SDS011;46274;47.168;27.604;2022-12-18T13:08:02;46.50;;;15.63;;
60426;SDS011;46274;47.168;27.604;2022-12-18T13:14:23;48.77;;;15.20;;
60426;SDS011;46274;47.168;27.604;2022-12-18T13:20:43;47.03;;;14.37;;
60426;SDS011;46274;47.168;27.604;2022-12-18T13:26:56;48.83;;;16.20;;
60426;SDS011;46274;47.168;27.604;2022-12-18T13:45:39;42.83;;;15.67;;
60426;SDS011;46274;47.168;27.604;2022-12-18T13:51:47;34.93;;;12.50;;
60426;SDS011;46274;47.168;27.604;2022-12-18T13:58:02;35.43;;;13.27;;
60426;SDS011;46274;47.168;27.604;2022-12-18T14:04:10;34.30;;;12.03;;
60426;SDS011;46274;47.168;27.604;2022-12-18T14:10:17;32.53;;;11.77;;
60426;SDS011;46274;47.168;27.604;2022-12-18T14:16:41;33.77;;;12.87;;
60426;SDS011;46274;47.168;27.604;2022-12-18T14:22:46;31.53;;;10.63;;
60426;SDS011;46274;47.168;27.604;2022-12-18T14:28:50;29.13;;;11.13;;
60426;SDS011;46274;47.168;27.604;2022-12-18T14:34:53;26.67;;;10.77;;
60426;SDS011;46274;47.168;27.604;2022-12-18T14:47:02;24.87;;;9.63;;
60426;SDS011;46274;47.168;27.604;2022-12-18T14:53:05;24.83;;;9.27;;
60426;SDS011;46274;47.168;27.604;2022-12-18T15:17:42;40.70;;;11.60;;
60426;SDS011;46274;47.168;27.604;2022-12-18T15:23:48;29.83;;;11.63;;
60426;SDS011;46274;47.168;27.604;2022-12-18T15:30:29;36.93;;;12.10;;
60426;SDS011;46274;47.168;27.604;2022-12-18T15:36:25;27.17;;;10.83;;
60426;SDS011;46274;47.168;27.604;2022-12-18T15:42:32;40.43;;;12.10;;
60426;SDS011;46274;47.168;27.604;2022-12-18T15:48:56;35.07;;;11.47;;
60426;SDS011;46274;47.168;27.604;2022-12-18T15:55:03;26.87;;;11.00;;
60426;SDS011;46274;47.168;27.604;2022-12-18T16:01:26;30.60;;;11.13;;
60426;SDS011;46274;47.168;27.604;2022-12-18T16:07:42;26.07;;;9.43;;
60426;SDS011;46274;47.168;27.604;2022-12-18T16:13:59;34.17;;;11.73;;
60426;SDS011;46274;47.168;27.604;2022-12-18T16:20:02;26.27;;;11.17;;
60426;SDS011;46274;47.168;27.604;2022-12-18T16:26:04;32.07;;;12.27;;
60426;SDS011;46274;47.168;27.604;2022-12-18T16:32:17;32.63;;;12.30;;
60426;SDS011;46274;47.168;27.604;2022-12-18T16:38:21;27.20;;;11.03;;
60426;SDS011;46274;47.168;27.604;2022-12-18T16:44:26;34.30;;;12.57;;
60426;SDS011;46274;47.168;27.604;2022-12-18T16:50:32;35.43;;;12.57;;
60426;SDS011;46274;47.168;27.604;2022-12-18T16:56:39;35.10;;;13.17;;
60426;SDS011;46274;47.168;27.604;2022-12-18T17:02:43;34.70;;;12.83;;
60426;SDS011;46274;47.168;27.604;2022-12-18T17:08:59;39.80;;;14.90;;
60426;SDS011;46274;47.168;27.604;2022-12-18T17:15:02;38.30;;;15.03;;
60426;SDS011;46274;47.168;27.604;2022-12-18T17:21:08;49.40;;;15.97;;
60426;SDS011;46274;47.168;27.604;2022-12-18T17:27:11;45.37;;;16.10;;
60426;SDS011;46274;47.168;27.604;2022-12-18T17:33:19;42.70;;;15.93;;
60426;SDS011;46274;47.168;27.604;2022-12-18T17:46:02;44.13;;;14.87;;
60426;SDS011;46274;47.168;27.604;2022-12-18T17:52:11;50.80;;;15.00;;
60426;SDS011;46274;47.168;27.604;2022-12-18T17:58:16;40.77;;;15.23;;
60426;SDS011;46274;47.168;27.604;2022-12-18T18:04:21;47.67;;;16.33;;
60426;SDS011;46274;47.168;27.604;2022-12-18T18:10:24;45.00;;;15.60;;
60426;SDS011;46274;47.168;27.604;2022-12-18T18:16:36;38.40;;;13.87;;
60426;SDS011;46274;47.168;27.604;2022-12-18T18:22:51;46.13;;;16.07;;
60426;SDS011;46274;47.168;27.604;2022-12-18T18:29:19;46.23;;;15.80;;
60426;SDS011;46274;47.168;27.604;2022-12-18T18:35:31;45.00;;;16.37;;
60426;SDS011;46274;47.168;27.604;2022-12-18T18:41:56;41.93;;;14.70;;
60426;SDS011;46274;47.168;27.604;2022-12-18T18:48:03;43.80;;;15.37;;
60426;SDS011;46274;47.168;27.604;2022-12-18T18:54:10;41.23;;;13.93;;
60426;SDS011;46274;47.168;27.604;2022-12-18T19:00:21;50.60;;;18.77;;
60426;SDS011;46274;47.168;27.604;2022-12-18T19:06:30;46.17;;;16.43;;
60426;SDS011;46274;47.168;27.604;2022-12-18T19:12:43;44.57;;;16.93;;
60426;SDS011;46274;47.168;27.604;2022-12-18T19:19:08;37.93;;;13.70;;
60426;SDS011;46274;47.168;27.604;2022-12-18T19:25:18;34.43;;;13.23;;
60426;SDS011;46274;47.168;27.604;2022-12-18T19:31:40;32.03;;;11.77;;
60426;SDS011;46274;47.168;27.604;2022-12-18T19:37:52;34.63;;;12.53;;
60426;SDS011;46274;47.168;27.604;2022-12-18T19:44:00;34.17;;;13.23;;
60426;SDS011;46274;47.168;27.604;2022-12-18T19:50:20;40.10;;;13.63;;
60426;SDS011;46274;47.168;27.604;2022-12-18T19:56:23;39.40;;;12.97;;
60426;SDS011;46274;47.168;27.604;2022-12-18T20:02:44;33.77;;;11.03;;
60426;SDS011;46274;47.168;27.604;2022-12-18T20:09:08;27.97;;;10.90;;
60426;SDS011;46274;47.168;27.604;2022-12-18T20:15:34;24.17;;;10.40;;
60426;SDS011;46274;47.168;27.604;2022-12-18T20:21:46;34.83;;;10.67;;
60426;SDS011;46274;47.168;27.604;2022-12-18T20:27:56;29.03;;;10.50;;
60426;SDS011;46274;47.168;27.604;2022-12-18T20:34:10;26.60;;;10.23;;
60426;SDS011;46274;47.168;27.604;2022-12-18T20:40:14;33.53;;;9.77;;
60426;SDS011;46274;47.168;27.604;2022-12-18T20:46:35;48.63;;;10.27;;
60426;SDS011;46274;47.168;27.604;2022-12-18T20:53:18;30.23;;;9.43;;
60426;SDS011;46274;47.168;27.604;2022-12-18T20:59:30;36.67;;;13.33;;
60426;SDS011;46274;47.168;27.604;2022-12-18T21:05:39;32.15;;;10.85;;
60426;SDS011;46274;47.168;27.604;2022-12-18T21:11:42;28.43;;;10.60;;
60426;SDS011;46274;47.168;27.604;2022-12-18T21:18:17;33.33;;;11.10;;
60426;SDS011;46274;47.168;27.604;2022-12-18T21:24:20;28.63;;;10.43;;
60426;SDS011;46274;47.168;27.604;2022-12-18T21:30:38;29.60;;;10.90;;
60426;SDS011;46274;47.168;27.604;2022-12-18T21:36:59;30.20;;;10.67;;
60426;SDS011;46274;47.168;27.604;2022-12-18T21:43:08;32.80;;;11.50;;
60426;SDS011;46274;47.168;27.604;2022-12-18T21:49:29;25.23;;;10.00;;
60426;SDS011;46274;47.168;27.604;2022-12-18T21:55:43;30.67;;;12.23;;
60426;SDS011;46274;47.168;27.604;2022-12-18T22:01:48;32.03;;;10.73;;
60426;SDS011;46274;47.168;27.604;2022-12-18T22:08:04;35.10;;;11.53;;
60426;SDS011;46274;47.168;27.604;2022-12-18T22:14:20;33.67;;;10.23;;
60426;SDS011;46274;47.168;27.604;2022-12-18T22:20:23;47.07;;;10.80;;
60426;SDS011;46274;47.168;27.604;2022-12-18T22:26:34;37.13;;;10.47;;
60426;SDS011;46274;47.168;27.604;2022-12-18T22:32:47;33.03;;;10.70;;
60426;SDS011;46274;47.168;27.604;2022-12-18T22:39:01;28.23;;;10.63;;
60426;SDS011;46274;47.168;27.604;2022-12-18T22:45:31;34.87;;;11.73;;
60426;SDS011;46274;47.168;27.604;2022-12-18T22:52:03;31.10;;;10.87;;
60426;SDS011;46274;47.168;27.604;2022-12-18T22:58:10;25.97;;;10.53;;
60426;SDS011;46274;47.168;27.604;2022-12-18T23:04:26;36.50;;;12.83;;
60426;SDS011;46274;47.168;27.604;2022-12-18T23:10:51;28.80;;;11.53;;
60426;SDS011;46274;47.168;27.604;2022-12-18T23:17:04;36.43;;;11.03;;
60426;SDS011;46274;47.168;27.604;2022-12-18T23:23:36;28.83;;;10.07;;
60426;SDS011;46274;47.168;27.604;2022-12-18T23:30:00;29.17;;;10.67;;
60426;SDS011;46274;47.168;27.604;2022-12-18T23:36:13;31.00;;;10.57;;
60426;SDS011;46274;47.168;27.604;2022-12-18T23:42:31;30.67;;;10.47;;
60426;SDS011;46274;47.168;27.604;2022-12-18T23:48:58;33.63;;;10.77;;
60426;SDS011;46274;47.168;27.604;2022-12-18T23:55:09;36.53;;;11.70;;
